createdAt,value
2023-03-16T00:00:20.365Z,9.279985
2023-03-16T00:01:20.341Z,9.279911
2023-03-16T00:02:20.409Z,9.279967
2023-03-16T00:03:20.501Z,9.280007
2023-03-16T00:04:20.318Z,9.280136
2023-03-16T00:05:20.268Z,9.280159
2023-03-16T00:06:20.254Z,9.280109
2023-03-16T00:07:20.234Z,9.280014
2023-03-16T00:08:20.216Z,9.279995
2023-03-16T00:09:20.227Z,9.280007
2023-03-16T00:10:20.174Z,9.279958
2023-03-16T00:11:20.153Z,9.280116
2023-03-16T00:12:20.141Z,9.280046
2023-03-16T00:13:20.118Z,9.280040
2023-03-16T00:14:20.130Z,9.280021
2023-03-16T00:15:20.085Z,9.280075
2023-03-16T00:16:20.100Z,9.280068
2023-03-16T00:17:20.332Z,9.280014
2023-03-16T00:18:20.023Z,9.280046
2023-03-16T00:19:20.051Z,9.280048
2023-03-16T00:20:19.994Z,9.280003
2023-03-16T00:21:19.966Z,9.280051
2023-03-16T00:22:19.952Z,9.280037
2023-03-16T00:23:19.930Z,9.280210
2023-03-16T00:24:19.951Z,9.279965
2023-03-16T00:25:19.892Z,9.280010
2023-03-16T00:26:19.880Z,9.279935
2023-03-16T00:27:19.856Z,9.279898
2023-03-16T00:28:19.835Z,9.279869
2023-03-16T00:29:19.840Z,9.279863
2023-03-16T00:30:19.791Z,9.279894
2023-03-16T00:31:19.795Z,9.279955
2023-03-16T00:32:19.752Z,9.279994
2023-03-16T00:33:19.736Z,9.279957
2023-03-16T00:34:19.743Z,9.279931
2023-03-16T00:35:19.697Z,9.280072
2023-03-16T00:36:19.673Z,9.279994
2023-03-16T00:37:19.700Z,9.279956
2023-03-16T00:38:19.643Z,9.279958
2023-03-16T00:39:19.646Z,9.279968
2023-03-16T00:40:19.599Z,9.279883
2023-03-16T00:41:19.604Z,9.279861
2023-03-16T00:42:19.566Z,9.279830
2023-03-16T00:43:19.554Z,9.279964
2023-03-16T00:44:19.563Z,9.279780
2023-03-16T00:45:19.523Z,9.279904
2023-03-16T00:46:19.507Z,9.279918
2023-03-16T00:47:19.474Z,9.279940
2023-03-16T00:48:19.447Z,9.279877
2023-03-16T00:49:19.460Z,9.279970
2023-03-16T00:50:19.413Z,9.279987
2023-03-16T00:51:19.399Z,9.279939
2023-03-16T00:52:19.374Z,9.279878
2023-03-16T00:53:19.355Z,9.279860
2023-03-16T00:54:19.359Z,9.279898
2023-03-16T00:55:19.322Z,9.279955
2023-03-16T00:56:19.300Z,9.280040
2023-03-16T00:57:19.276Z,9.279958
2023-03-16T00:58:19.262Z,9.280028
2023-03-16T00:59:19.270Z,9.279903
2023-03-16T01:00:19.222Z,9.279881
2023-03-16T01:01:19.354Z,9.279982
2023-03-16T01:02:19.187Z,9.279923
2023-03-16T01:03:19.205Z,9.279888
2023-03-16T01:04:19.178Z,9.279932
2023-03-16T01:05:19.127Z,9.279897
2023-03-16T01:06:19.101Z,9.279863
2023-03-16T01:07:19.098Z,9.279948
2023-03-16T01:08:19.069Z,9.279924
2023-03-16T01:09:19.089Z,9.279889
2023-03-16T01:10:19.030Z,9.280024
2023-03-16T01:11:19.041Z,9.279867
2023-03-16T01:12:18.997Z,9.279929
2023-03-16T01:13:18.976Z,9.279988
2023-03-16T01:14:18.987Z,9.279968
2023-03-16T01:15:18.942Z,9.280018
2023-03-16T01:16:19.026Z,9.280038
2023-03-16T01:17:18.906Z,9.280013
2023-03-16T01:18:18.885Z,9.279989
2023-03-16T01:19:18.896Z,9.279999
2023-03-16T01:20:18.845Z,9.279943
2023-03-16T01:21:18.831Z,9.279949
2023-03-16T01:22:18.843Z,9.279930
2023-03-16T01:23:18.796Z,9.280037
2023-03-16T01:24:18.772Z,9.279987
2023-03-16T01:25:18.791Z,9.279849
2023-03-16T01:26:18.862Z,9.279975
2023-03-16T01:27:18.724Z,9.280026
2023-03-16T01:28:18.697Z,9.280104
2023-03-16T01:29:18.677Z,9.280112
2023-03-16T01:30:18.693Z,9.280149
2023-03-16T01:31:18.700Z,9.280074
2023-03-16T01:32:18.626Z,9.279951
2023-03-16T01:33:18.613Z,9.279985
2023-03-16T01:34:18.584Z,9.280046
2023-03-16T01:35:18.602Z,9.280014
2023-03-16T01:36:18.568Z,9.279961
2023-03-16T01:37:18.530Z,9.279970
2023-03-16T01:38:18.519Z,9.279899
2023-03-16T01:39:18.493Z,9.279964
2023-03-16T01:40:18.500Z,9.279925
2023-03-16T01:41:18.459Z,9.279981
2023-03-16T01:42:18.443Z,9.279805
2023-03-16T01:43:18.422Z,9.279903
2023-03-16T01:44:18.419Z,9.279922
2023-03-16T01:45:18.423Z,9.280072
2023-03-16T01:46:18.552Z,9.280028
2023-03-16T01:47:18.353Z,9.280022
2023-03-16T01:48:18.330Z,9.279990
2023-03-16T01:49:18.307Z,9.279994
2023-03-16T01:50:19.317Z,9.280026
2023-03-16T01:51:18.273Z,9.280041
2023-03-16T01:52:18.260Z,9.279917
2023-03-16T01:53:18.243Z,9.279943
2023-03-16T01:54:18.221Z,9.279943
2023-03-16T01:55:18.232Z,9.279885
2023-03-16T01:56:18.188Z,9.280036
2023-03-16T01:57:18.169Z,9.279910
2023-03-16T01:58:18.151Z,9.280088
2023-03-16T01:59:18.155Z,9.280201
2023-03-16T02:00:18.141Z,9.280174
2023-03-16T02:01:18.122Z,9.280227
2023-03-16T02:02:18.073Z,9.280198
2023-03-16T02:03:18.062Z,9.280038
2023-03-16T02:04:18.066Z,9.279997
2023-03-16T02:05:18.043Z,9.280052
2023-03-16T02:06:17.998Z,9.280061
2023-03-16T02:07:18.009Z,9.280017
2023-03-16T02:08:17.963Z,9.280055
2023-03-16T02:09:17.960Z,9.280064
2023-03-16T02:10:17.959Z,9.280086
2023-03-16T02:11:17.912Z,9.280158
2023-03-16T02:12:17.935Z,9.280083
2023-03-16T02:13:17.873Z,9.280118
2023-03-16T02:14:17.856Z,9.280151
2023-03-16T02:15:17.871Z,9.280104
2023-03-16T02:16:17.928Z,9.280066
2023-03-16T02:17:17.808Z,9.280091
2023-03-16T02:18:17.784Z,9.280050
2023-03-16T02:19:17.772Z,9.280096
2023-03-16T02:20:17.774Z,9.280117
2023-03-16T02:21:17.730Z,9.280097
2023-03-16T02:22:17.711Z,9.280139
2023-03-16T02:23:17.694Z,9.280157
2023-03-16T02:24:17.670Z,9.280129
2023-03-16T02:25:17.682Z,9.280049
2023-03-16T02:26:17.632Z,9.280076
2023-03-16T02:27:17.610Z,9.279956
2023-03-16T02:28:17.596Z,9.280005
2023-03-16T02:29:17.581Z,9.280028
2023-03-16T02:30:17.591Z,9.280122
2023-03-16T02:31:17.616Z,9.280235
2023-03-16T02:32:17.556Z,9.280134
2023-03-16T02:33:17.509Z,9.280169
2023-03-16T02:34:17.488Z,9.280094
2023-03-16T02:35:17.466Z,9.280028
2023-03-16T02:36:17.447Z,9.279961
2023-03-16T02:37:17.459Z,9.280068
2023-03-16T02:38:17.411Z,9.280053
2023-03-16T02:39:17.397Z,9.279979
2023-03-16T02:40:17.402Z,9.280005
2023-03-16T02:41:17.353Z,9.280004
2023-03-16T02:42:17.340Z,9.280088
2023-03-16T02:43:17.327Z,9.280111
2023-03-16T02:44:17.310Z,9.280027
2023-03-16T02:45:17.311Z,9.280041
2023-03-16T02:46:17.299Z,9.279998
2023-03-16T02:47:17.246Z,9.279996
2023-03-16T02:48:17.224Z,9.280102
2023-03-16T02:49:17.209Z,9.280164
2023-03-16T02:50:17.221Z,9.280148
2023-03-16T02:51:17.170Z,9.280066
2023-03-16T02:52:17.176Z,9.280049
2023-03-16T02:53:17.133Z,9.279952
2023-03-16T02:54:17.116Z,9.280116
2023-03-16T02:55:17.123Z,9.279980
2023-03-16T02:56:17.073Z,9.279971
2023-03-16T02:57:17.061Z,9.280027
2023-03-16T02:58:17.042Z,9.280099
2023-03-16T02:59:17.021Z,9.279967
2023-03-16T03:00:17.026Z,9.279962
2023-03-16T03:01:16.998Z,9.279982
2023-03-16T03:02:16.965Z,9.279945
2023-03-16T03:03:17.007Z,9.279893
2023-03-16T03:04:16.923Z,9.279878
2023-03-16T03:05:16.947Z,9.280033
2023-03-16T03:06:16.900Z,9.280028
2023-03-16T03:07:16.869Z,9.279971
2023-03-16T03:08:16.850Z,9.279929
2023-03-16T03:09:16.831Z,9.279935
2023-03-16T03:10:16.840Z,9.280054
2023-03-16T03:11:16.794Z,9.279920
2023-03-16T03:12:16.775Z,9.279946
2023-03-16T03:13:16.754Z,9.279960
2023-03-16T03:14:16.867Z,9.279983
2023-03-16T03:15:16.750Z,9.279917
2023-03-16T03:16:16.743Z,9.279895
2023-03-16T03:17:16.695Z,9.279919
2023-03-16T03:18:16.668Z,9.279950
2023-03-16T03:19:16.649Z,9.280013
2023-03-16T03:20:16.656Z,9.279934
2023-03-16T03:21:16.624Z,9.279855
2023-03-16T03:22:16.616Z,9.279867
2023-03-16T03:23:16.571Z,9.279986
2023-03-16T03:24:16.557Z,9.279984
2023-03-16T03:25:16.559Z,9.280002
2023-03-16T03:26:16.540Z,9.279959
2023-03-16T03:27:16.499Z,9.279900
2023-03-16T03:28:16.478Z,9.279917
2023-03-16T03:29:17.428Z,9.279897
2023-03-16T03:30:16.478Z,9.279922
2023-03-16T03:31:16.479Z,9.279908
2023-03-16T03:32:16.402Z,9.279992
2023-03-16T03:33:16.394Z,9.279924
2023-03-16T03:34:16.439Z,9.279943
2023-03-16T03:35:16.404Z,9.279882
2023-03-16T03:36:16.333Z,9.279877
2023-03-16T03:37:16.311Z,9.279828
2023-03-16T03:38:16.420Z,9.279904
2023-03-16T03:39:16.280Z,9.279985
2023-03-16T03:40:16.291Z,9.279904
2023-03-16T03:41:16.245Z,9.279810
2023-03-16T03:42:16.218Z,9.279881
2023-03-16T03:43:16.229Z,9.279849
2023-03-16T03:44:16.177Z,9.279879
2023-03-16T03:45:16.187Z,9.279868
2023-03-16T03:46:16.305Z,9.279994
2023-03-16T03:47:16.125Z,9.279949
2023-03-16T03:48:16.107Z,9.279928
2023-03-16T03:49:16.086Z,9.279892
2023-03-16T03:50:16.099Z,9.279866
2023-03-16T03:51:16.055Z,9.279898
2023-03-16T03:52:16.028Z,9.279790
2023-03-16T03:53:16.038Z,9.279860
2023-03-16T03:54:15.995Z,9.279940
2023-03-16T03:55:16.021Z,9.279873
2023-03-16T03:56:15.956Z,9.279976
2023-03-16T03:57:15.935Z,9.279999
2023-03-16T03:58:15.921Z,9.279966
2023-03-16T03:59:15.902Z,9.279978
2023-03-16T04:00:15.882Z,9.279954
2023-03-16T04:01:15.889Z,9.279851
2023-03-16T04:02:15.939Z,9.279856
2023-03-16T04:03:16.049Z,9.279952
2023-03-16T04:04:15.801Z,9.279999
2023-03-16T04:05:15.824Z,9.279968
2023-03-16T04:06:15.770Z,9.280007
2023-03-16T04:07:15.756Z,9.280018
2023-03-16T04:08:15.730Z,9.280004
2023-03-16T04:09:15.737Z,9.280053
2023-03-16T04:10:15.744Z,9.279990
2023-03-16T04:11:15.676Z,9.279956
2023-03-16T04:12:15.668Z,9.280014
2023-03-16T04:13:15.633Z,9.279914
2023-03-16T04:14:15.649Z,9.280003
2023-03-16T04:15:15.630Z,9.280047
2023-03-16T04:16:15.605Z,9.280030
2023-03-16T04:17:15.561Z,9.279947
2023-03-16T04:18:15.540Z,9.279801
2023-03-16T04:19:15.564Z,9.279798
2023-03-16T04:20:15.524Z,9.280023
2023-03-16T04:21:15.517Z,9.279863
2023-03-16T04:22:15.467Z,9.279949
2023-03-16T04:23:15.446Z,9.279998
2023-03-16T04:24:15.435Z,9.280004
2023-03-16T04:25:15.407Z,9.279934
2023-03-16T04:26:15.414Z,9.279937
2023-03-16T04:27:15.369Z,9.279945
2023-03-16T04:28:15.348Z,9.280008
2023-03-16T04:29:15.330Z,9.280013
2023-03-16T04:30:15.317Z,9.279958
2023-03-16T04:31:15.407Z,9.279931
2023-03-16T04:32:15.269Z,9.279996
2023-03-16T04:33:15.268Z,9.279959
2023-03-16T04:34:15.257Z,9.279884
2023-03-16T04:35:15.218Z,9.279963
2023-03-16T04:36:15.263Z,9.279984
2023-03-16T04:37:15.173Z,9.279964
2023-03-16T04:38:15.158Z,9.280088
2023-03-16T04:39:15.140Z,9.279947
2023-03-16T04:40:15.124Z,9.279900
2023-03-16T04:41:15.137Z,9.279885
2023-03-16T04:42:15.083Z,9.279800
2023-03-16T04:43:15.063Z,9.279818
2023-03-16T04:44:15.053Z,9.279945
2023-03-16T04:45:15.040Z,9.279832
2023-03-16T04:46:15.064Z,9.280014
2023-03-16T04:47:14.988Z,9.280047
2023-03-16T04:48:14.974Z,9.279905
2023-03-16T04:49:14.950Z,9.279958
2023-03-16T04:50:14.940Z,9.279931
2023-03-16T04:51:14.943Z,9.279987
2023-03-16T04:52:14.912Z,9.279961
2023-03-16T04:53:14.877Z,9.279954
2023-03-16T04:54:14.857Z,9.279937
2023-03-16T04:55:14.846Z,9.279864
2023-03-16T04:56:14.850Z,9.279866
2023-03-16T04:57:14.804Z,9.280005
2023-03-16T04:58:14.787Z,9.280065
2023-03-16T04:59:14.820Z,9.279986
2023-03-16T05:00:14.758Z,9.280051
2023-03-16T05:01:14.771Z,9.280049
2023-03-16T05:02:14.709Z,9.280086
2023-03-16T05:03:14.692Z,9.279984
2023-03-16T05:04:19.091Z,9.279947
2023-03-16T05:05:15.696Z,9.280025
2023-03-16T05:06:14.668Z,9.280024
2023-03-16T05:07:14.624Z,9.280000
2023-03-16T05:08:14.598Z,9.279934
2023-03-16T05:09:14.576Z,9.279923
2023-03-16T05:10:14.560Z,9.279973
2023-03-16T05:11:14.580Z,9.279984
2023-03-16T05:12:14.525Z,9.280038
2023-03-16T05:13:14.498Z,9.279991
2023-03-16T05:14:14.476Z,9.279885
2023-03-16T05:15:14.461Z,9.280082
2023-03-16T05:16:14.529Z,9.279978
2023-03-16T05:17:14.426Z,9.280023
2023-03-16T05:18:14.403Z,9.280054
2023-03-16T05:19:14.385Z,9.280042
2023-03-16T05:20:16.197Z,9.279943
2023-03-16T05:21:15.347Z,9.280027
2023-03-16T05:22:14.335Z,9.280019
2023-03-16T05:23:14.307Z,9.279953
2023-03-16T05:24:14.302Z,9.279886
2023-03-16T05:25:14.309Z,9.279942
2023-03-16T05:26:14.282Z,9.279878
2023-03-16T05:27:14.232Z,9.279712
2023-03-16T05:28:14.216Z,9.279883
2023-03-16T05:29:14.199Z,9.280054
2023-03-16T05:30:14.181Z,9.279946
2023-03-16T05:31:14.267Z,9.280047
2023-03-16T05:32:14.139Z,9.280010
2023-03-16T05:33:14.119Z,9.279916
2023-03-16T05:34:14.096Z,9.279950
2023-03-16T05:35:14.077Z,9.279981
2023-03-16T05:36:14.165Z,9.279972
2023-03-16T05:37:14.051Z,9.279922
2023-03-16T05:38:14.043Z,9.279922
2023-03-16T05:39:14.026Z,9.279952
2023-03-16T05:40:14.018Z,9.279945
2023-03-16T05:41:14.002Z,9.280021
2023-03-16T05:42:13.950Z,9.279897
2023-03-16T05:43:13.947Z,9.279901
2023-03-16T05:44:13.944Z,9.279806
2023-03-16T05:45:13.905Z,9.279837
2023-03-16T05:46:13.923Z,9.279932
2023-03-16T05:47:13.868Z,9.279921
2023-03-16T05:48:13.850Z,9.279928
2023-03-16T05:49:13.831Z,9.280038
2023-03-16T05:50:13.809Z,9.280001
2023-03-16T05:51:13.819Z,9.279895
2023-03-16T05:52:13.800Z,9.280018
2023-03-16T05:53:13.753Z,9.279804
2023-03-16T05:54:13.736Z,9.279692
2023-03-16T05:55:13.721Z,9.279726
2023-03-16T05:56:13.733Z,9.279875
2023-03-16T05:57:13.680Z,9.279720
2023-03-16T05:58:13.660Z,9.279946
2023-03-16T05:59:13.649Z,9.280055
2023-03-16T06:00:13.621Z,9.279975
2023-03-16T06:01:13.635Z,9.279991
2023-03-16T06:02:13.607Z,9.279870
2023-03-16T06:03:13.623Z,9.279758
2023-03-16T06:04:13.592Z,9.279922
2023-03-16T06:05:13.540Z,9.279950
2023-03-16T06:06:13.552Z,9.279920
2023-03-16T06:07:13.501Z,9.279955
2023-03-16T06:08:13.483Z,9.279945
2023-03-16T06:09:13.466Z,9.279993
2023-03-16T06:10:13.449Z,9.279995
2023-03-16T06:11:13.476Z,9.279976
2023-03-16T06:12:13.416Z,9.280076
2023-03-16T06:13:13.403Z,9.279898
2023-03-16T06:14:13.381Z,9.279888
2023-03-16T06:15:13.371Z,9.279712
2023-03-16T06:16:13.427Z,9.279799
2023-03-16T06:17:13.331Z,9.279839
2023-03-16T06:18:13.308Z,9.279994
2023-03-16T06:19:13.292Z,9.280067
2023-03-16T06:20:13.274Z,9.280057
2023-03-16T06:21:13.306Z,9.280058
2023-03-16T06:22:13.259Z,9.280047
2023-03-16T06:23:13.211Z,9.279985
2023-03-16T06:24:13.195Z,9.280052
2023-03-16T06:25:13.168Z,9.279976
2023-03-16T06:26:13.175Z,9.279989
2023-03-16T06:27:13.130Z,9.280060
2023-03-16T06:28:13.100Z,9.279990
2023-03-16T06:29:13.104Z,9.280011
2023-03-16T06:30:13.062Z,9.279884
2023-03-16T06:31:13.094Z,9.279949
2023-03-16T06:32:13.012Z,9.279990
2023-03-16T06:33:13.920Z,9.279966
2023-03-16T06:34:12.970Z,9.280028
2023-03-16T06:35:12.945Z,9.279931
2023-03-16T06:36:13.067Z,9.279963
2023-03-16T06:37:12.905Z,9.280019
2023-03-16T06:38:12.892Z,9.279999
2023-03-16T06:39:12.859Z,9.280049
2023-03-16T06:40:12.840Z,9.280025
2023-03-16T06:41:12.853Z,9.279946
2023-03-16T06:42:12.798Z,9.280018
2023-03-16T06:43:12.779Z,9.280009
2023-03-16T06:44:12.763Z,9.279880
2023-03-16T06:45:12.742Z,9.279894
2023-03-16T06:46:12.812Z,9.279963
2023-03-16T06:47:12.707Z,9.280034
2023-03-16T06:48:12.706Z,9.280092
2023-03-16T06:49:12.673Z,9.279962
2023-03-16T06:50:12.653Z,9.280051
2023-03-16T06:51:12.667Z,9.280089
2023-03-16T06:52:12.616Z,9.279981
2023-03-16T06:53:12.614Z,9.279976
2023-03-16T06:54:12.581Z,9.279828
2023-03-16T06:55:12.568Z,9.280053
2023-03-16T06:56:12.582Z,9.280142
2023-03-16T06:57:12.533Z,9.280032
2023-03-16T06:58:12.516Z,9.280156
2023-03-16T06:59:12.492Z,9.280141
2023-03-16T07:00:12.479Z,9.279912
2023-03-16T07:01:12.605Z,9.280099
2023-03-16T07:02:12.444Z,9.280134
2023-03-16T07:03:12.442Z,9.280015
2023-03-16T07:04:12.442Z,9.279914
2023-03-16T07:05:12.383Z,9.279935
2023-03-16T07:06:12.399Z,9.279940
2023-03-16T07:07:12.349Z,9.280035
2023-03-16T07:08:12.331Z,9.280004
2023-03-16T07:09:12.321Z,9.280568
2023-03-16T07:10:12.300Z,9.280198
2023-03-16T07:11:12.308Z,9.279966
2023-03-16T07:12:12.261Z,9.279948
2023-03-16T07:13:12.241Z,9.279845
2023-03-16T07:14:12.218Z,9.279811
2023-03-16T07:15:12.207Z,9.279821
2023-03-16T07:16:12.232Z,9.280053
2023-03-16T07:17:12.164Z,9.279918
2023-03-16T07:18:12.146Z,9.279836
2023-03-16T07:19:12.127Z,9.280012
2023-03-16T07:20:12.107Z,9.280185
2023-03-16T07:21:12.114Z,9.280151
2023-03-16T07:22:12.095Z,9.280066
2023-03-16T07:23:12.055Z,9.280031
2023-03-16T07:24:12.040Z,9.279991
2023-03-16T07:25:12.021Z,9.279964
2023-03-16T07:26:12.014Z,9.279919
2023-03-16T07:27:12.621Z,9.280061
2023-03-16T07:28:12.966Z,9.280051
2023-03-16T07:29:11.953Z,9.279850
2023-03-16T07:30:11.925Z,9.279942
2023-03-16T07:31:11.929Z,9.279910
2023-03-16T07:32:11.951Z,9.279945
2023-03-16T07:33:11.943Z,9.279967
2023-03-16T07:34:11.861Z,9.279963
2023-03-16T07:35:11.841Z,9.280024
2023-03-16T07:36:11.948Z,9.279928
2023-03-16T07:37:11.810Z,9.279874
2023-03-16T07:38:11.787Z,9.279902
2023-03-16T07:39:11.777Z,9.279752
2023-03-16T07:40:11.742Z,9.279923
2023-03-16T07:41:12.764Z,9.279911
2023-03-16T07:42:11.748Z,9.279917
2023-03-16T07:43:11.697Z,9.279929
2023-03-16T07:44:11.689Z,9.279906
2023-03-16T07:45:11.662Z,9.279861
2023-03-16T07:46:11.687Z,9.279892
2023-03-16T07:47:11.653Z,9.279911
2023-03-16T07:48:11.625Z,9.279862
2023-03-16T07:49:11.597Z,9.279858
2023-03-16T07:50:11.589Z,9.279913
2023-03-16T07:51:11.560Z,9.279861
2023-03-16T07:52:11.588Z,9.279906
2023-03-16T07:53:11.528Z,9.279877
2023-03-16T07:54:11.509Z,9.279867
2023-03-16T07:55:11.511Z,9.279905
2023-03-16T07:56:11.481Z,9.279836
2023-03-16T07:57:11.490Z,9.279918
2023-03-16T07:58:11.473Z,9.279931
2023-03-16T07:59:11.426Z,9.279861
2023-03-16T08:00:11.407Z,9.279890
2023-03-16T08:01:11.394Z,9.279914
2023-03-16T08:02:11.554Z,9.279933
2023-03-16T08:03:11.446Z,9.279852
2023-03-16T08:04:11.346Z,9.279861
2023-03-16T08:05:11.383Z,9.279860
2023-03-16T08:06:11.309Z,9.279835
2023-03-16T08:07:11.324Z,9.279885
2023-03-16T08:08:11.288Z,9.279859
2023-03-16T08:09:11.258Z,9.279862
2023-03-16T08:10:11.230Z,9.279856
2023-03-16T08:11:12.225Z,9.279868
2023-03-16T08:12:11.240Z,9.279902
2023-03-16T08:13:11.204Z,9.279892
2023-03-16T08:14:11.170Z,9.279942
2023-03-16T08:15:11.151Z,9.279915
2023-03-16T08:16:11.238Z,9.279839
2023-03-16T08:17:11.145Z,9.279846
2023-03-16T08:18:11.098Z,9.279938
2023-03-16T08:19:11.073Z,9.279900
2023-03-16T08:20:11.057Z,9.279994
2023-03-16T08:21:11.031Z,9.280012
2023-03-16T08:22:11.045Z,9.279965
2023-03-16T08:23:10.984Z,9.280043
2023-03-16T08:24:10.968Z,9.279831
2023-03-16T08:25:10.939Z,9.279842
2023-03-16T08:26:11.028Z,9.279919
2023-03-16T08:27:10.929Z,9.279972
2023-03-16T08:28:10.883Z,9.279766
2023-03-16T08:29:10.883Z,9.279634
2023-03-16T08:30:10.828Z,9.279907
2023-03-16T08:31:10.897Z,9.279849
2023-03-16T08:32:10.825Z,9.279829
2023-03-16T08:33:10.820Z,9.279852
2023-03-16T08:34:10.765Z,9.279816
2023-03-16T08:35:10.738Z,9.279834
2023-03-16T08:36:10.759Z,9.279799
2023-03-16T08:37:10.721Z,9.279860
2023-03-16T08:38:10.672Z,9.279723
2023-03-16T08:39:12.094Z,9.279810
2023-03-16T08:40:11.633Z,9.279714
2023-03-16T08:41:10.615Z,9.279676
2023-03-16T08:42:10.626Z,9.279836
2023-03-16T08:43:10.574Z,9.279931
2023-03-16T08:44:10.645Z,9.279908
2023-03-16T08:45:13.570Z,9.280040
2023-03-16T08:46:11.555Z,9.279813
2023-03-16T08:47:10.531Z,9.279799
2023-03-16T08:48:10.487Z,9.279962
2023-03-16T08:49:10.460Z,9.279860
2023-03-16T08:50:10.514Z,9.279838
2023-03-16T08:51:10.500Z,9.279849
2023-03-16T08:52:10.460Z,9.279904
2023-03-16T08:53:10.386Z,9.279898
2023-03-16T08:54:10.382Z,9.279797
2023-03-16T08:55:10.350Z,9.279973
2023-03-16T08:56:10.344Z,9.279948
2023-03-16T08:57:10.338Z,9.279817
2023-03-16T08:58:10.321Z,9.279842
2023-03-16T08:59:23.260Z,9.279827
2023-03-16T09:00:12.272Z,9.279805
2023-03-16T09:01:10.237Z,9.279738
2023-03-16T09:02:10.241Z,9.279839
2023-03-16T09:03:10.229Z,9.279920
2023-03-16T09:04:10.247Z,9.279875
2023-03-16T09:05:10.166Z,9.279915
2023-03-16T09:06:10.177Z,9.279889
2023-03-16T09:07:10.233Z,9.279881
2023-03-16T09:08:10.135Z,9.279887
2023-03-16T09:09:10.077Z,9.279928
2023-03-16T09:10:10.084Z,9.279887
2023-03-16T09:11:10.063Z,9.279903
2023-03-16T09:12:10.057Z,9.279852
2023-03-16T09:13:10.010Z,9.279832
2023-03-16T09:14:10.040Z,9.279817
2023-03-16T09:15:10.000Z,9.279772
2023-03-16T09:16:10.016Z,9.279817
2023-03-16T09:17:09.999Z,9.279907
2023-03-16T09:18:09.909Z,9.279908
2023-03-16T09:19:09.899Z,9.279936
2023-03-16T09:20:21.855Z,9.279849
2023-03-16T09:21:10.975Z,9.279848
2023-03-16T09:22:09.876Z,9.279902
2023-03-16T09:23:09.816Z,9.279948
2023-03-16T09:24:09.800Z,9.279745
2023-03-16T09:25:09.779Z,9.279916
2023-03-16T09:26:09.755Z,9.279925
2023-03-16T09:27:09.844Z,9.279882
2023-03-16T09:28:09.721Z,9.279767
2023-03-16T09:29:09.706Z,9.279771
2023-03-16T09:30:09.686Z,9.279916
2023-03-16T09:31:09.695Z,9.279934
2023-03-16T09:32:09.679Z,9.279801
2023-03-16T09:33:09.675Z,9.279967
2023-03-16T09:34:09.617Z,9.279890
2023-03-16T09:35:09.590Z,9.279963
2023-03-16T09:36:09.597Z,9.279870
2023-03-16T09:37:09.638Z,9.279914
2023-03-16T09:38:09.542Z,9.279881
2023-03-16T09:39:09.520Z,9.279899
2023-03-16T09:40:12.055Z,9.279881
2023-03-16T09:41:10.488Z,9.279883
2023-03-16T09:42:09.466Z,9.279614
2023-03-16T09:43:09.472Z,9.279786
2023-03-16T09:44:09.433Z,9.279898
2023-03-16T09:45:09.411Z,9.279960
2023-03-16T09:46:09.435Z,9.279909
2023-03-16T09:47:09.408Z,9.279938
2023-03-16T09:48:09.382Z,9.279891
2023-03-16T09:49:09.342Z,9.279948
2023-03-16T09:50:09.342Z,9.279921
2023-03-16T09:51:09.356Z,9.279872
2023-03-16T09:52:09.286Z,9.279891
2023-03-16T09:53:09.288Z,9.279814
2023-03-16T09:54:09.247Z,9.279855
2023-03-16T09:55:09.228Z,9.279853
2023-03-16T09:56:09.197Z,9.279919
2023-03-16T09:57:09.178Z,9.279951
2023-03-16T09:58:09.184Z,9.280026
2023-03-16T09:59:09.136Z,9.280195
2023-03-16T10:00:09.118Z,9.279984
2023-03-16T10:01:09.143Z,9.279793
2023-03-16T10:02:09.080Z,9.279840
2023-03-16T10:03:09.095Z,9.279805
2023-03-16T10:04:09.070Z,9.279869
2023-03-16T10:05:09.023Z,9.279940
2023-03-16T10:06:09.006Z,9.279902
2023-03-16T10:07:08.984Z,9.279837
2023-03-16T10:08:09.067Z,9.279716
2023-03-16T10:09:08.934Z,9.279836
2023-03-16T10:10:08.921Z,9.279862
2023-03-16T10:11:08.899Z,9.279794
2023-03-16T10:12:08.879Z,9.279861
2023-03-16T10:13:08.886Z,9.279534
2023-03-16T10:14:08.838Z,9.279752
2023-03-16T10:15:08.844Z,9.279953
2023-03-16T10:16:08.825Z,9.280081
2023-03-16T10:17:08.776Z,9.279914
2023-03-16T10:18:08.784Z,9.279847
2023-03-16T10:19:08.739Z,9.280025
2023-03-16T10:20:08.709Z,9.279877
2023-03-16T10:21:08.689Z,9.279873
2023-03-16T10:22:08.675Z,9.279828
2023-03-16T10:23:08.687Z,9.279964
2023-03-16T10:24:08.630Z,9.280053
2023-03-16T10:25:08.622Z,9.280084
2023-03-16T10:26:08.593Z,9.279990
2023-03-16T10:27:08.563Z,9.280029
2023-03-16T10:28:08.565Z,9.280041
2023-03-16T10:29:08.524Z,9.279994
2023-03-16T10:30:08.511Z,9.280016
2023-03-16T10:31:08.478Z,9.279997
2023-03-16T10:32:08.551Z,9.279751
2023-03-16T10:33:09.271Z,9.279879
2023-03-16T10:34:09.408Z,9.279846
2023-03-16T10:35:08.386Z,9.279926
2023-03-16T10:36:08.382Z,9.279908
2023-03-16T10:37:08.345Z,9.279992
2023-03-16T10:38:08.356Z,9.279942
2023-03-16T10:39:08.356Z,9.279958
2023-03-16T10:40:08.304Z,9.280059
2023-03-16T10:41:08.253Z,9.280014
2023-03-16T10:42:09.697Z,9.279960
2023-03-16T10:43:09.276Z,9.279977
2023-03-16T10:44:08.192Z,9.279804
2023-03-16T10:45:08.213Z,9.279859
2023-03-16T10:46:08.194Z,9.279833
2023-03-16T10:47:08.185Z,9.279921
2023-03-16T10:48:08.138Z,9.279936
2023-03-16T10:49:08.087Z,9.279982
2023-03-16T10:50:08.105Z,9.280137
2023-03-16T10:51:08.047Z,9.280007
2023-03-16T10:52:08.029Z,9.279795
2023-03-16T10:53:08.035Z,9.279909
2023-03-16T10:54:07.983Z,9.280050
2023-03-16T10:55:07.955Z,9.280042
2023-03-16T10:56:07.930Z,9.280010
2023-03-16T10:57:07.913Z,9.279918
2023-03-16T10:58:07.915Z,9.279965
2023-03-16T10:59:07.869Z,9.280039
2023-03-16T11:00:07.843Z,9.279946
2023-03-16T11:01:07.856Z,9.279943
2023-03-16T11:02:07.801Z,9.280024
2023-03-16T11:03:07.808Z,9.279929
2023-03-16T11:04:07.780Z,9.279907
2023-03-16T11:05:07.798Z,9.279707
2023-03-16T11:06:07.750Z,9.279649
2023-03-16T11:07:07.690Z,9.279772
2023-03-16T11:08:07.704Z,9.279887
2023-03-16T11:09:07.657Z,9.279972
2023-03-16T11:10:07.637Z,9.279908
2023-03-16T11:11:07.616Z,9.279864
2023-03-16T11:12:07.592Z,9.279859
2023-03-16T11:13:07.601Z,9.279916
2023-03-16T11:14:07.564Z,9.279949
2023-03-16T11:15:11.598Z,9.279973
2023-03-16T11:16:09.517Z,9.279950
2023-03-16T11:17:07.488Z,9.279867
2023-03-16T11:18:07.521Z,9.279864
2023-03-16T11:19:07.457Z,9.279978
2023-03-16T11:20:07.452Z,9.279988
2023-03-16T11:21:07.417Z,9.279979
2023-03-16T11:22:07.405Z,9.279951
2023-03-16T11:23:07.398Z,9.279900
2023-03-16T11:24:07.351Z,9.279851
2023-03-16T11:25:07.333Z,9.279910
2023-03-16T11:26:07.328Z,9.279996
2023-03-16T11:27:07.309Z,9.280026
2023-03-16T11:28:09.822Z,9.279978
2023-03-16T11:29:07.272Z,9.279829
2023-03-16T11:30:07.238Z,9.279889
2023-03-16T11:31:07.269Z,9.279963
2023-03-16T11:32:07.204Z,9.279900
2023-03-16T11:33:07.336Z,9.279919
2023-03-16T11:34:07.170Z,9.280004
2023-03-16T11:35:07.146Z,9.279971
2023-03-16T11:36:07.131Z,9.279898
2023-03-16T11:37:07.102Z,9.279959
2023-03-16T11:38:07.108Z,9.279997
2023-03-16T11:39:07.060Z,9.279927
2023-03-16T11:40:07.048Z,9.279985
2023-03-16T11:41:07.023Z,9.280005
2023-03-16T11:42:07.001Z,9.280009
2023-03-16T11:43:06.979Z,9.280024
2023-03-16T11:44:07.040Z,9.280029